createdAt,value
2018-09-26T00:00:16.390Z,1.60
2018-09-26T00:01:16.418Z,1.60
2018-09-26T00:02:16.698Z,1.60
2018-09-26T00:03:16.977Z,1.61
2018-09-26T00:04:16.241Z,1.61
2018-09-26T00:05:16.511Z,1.67
2018-09-26T00:06:16.775Z,1.67
2018-09-26T00:07:17.042Z,1.61
2018-09-26T00:08:16.293Z,1.62
2018-09-26T00:09:16.571Z,1.64
2018-09-26T00:10:16.850Z,1.65
2018-09-26T00:11:16.887Z,1.64
2018-09-26T00:12:17.149Z,1.64
2018-09-26T00:13:16.424Z,1.65
2018-09-26T00:14:16.698Z,1.61
2018-09-26T00:15:16.948Z,1.61
2018-09-26T00:16:16.219Z,1.58
2018-09-26T00:17:16.474Z,1.60
2018-09-26T00:18:16.750Z,1.58
2018-09-26T00:19:17.022Z,1.61
2018-09-26T00:20:16.314Z,1.64
2018-09-26T00:21:16.334Z,1.64
2018-09-26T00:22:16.610Z,1.68
2018-09-26T00:23:16.880Z,1.69
2018-09-26T00:24:17.146Z,1.68
2018-09-26T00:25:16.412Z,1.60
2018-09-26T00:26:16.694Z,1.60
2018-09-26T00:27:16.940Z,1.55
2018-09-26T00:28:16.212Z,1.53
2018-09-26T00:29:16.489Z,1.54
2018-09-26T00:30:16.739Z,1.53
2018-09-26T00:31:16.808Z,1.54
2018-09-26T00:32:17.073Z,1.54
2018-09-26T00:33:16.344Z,1.53
2018-09-26T00:34:16.597Z,1.51
2018-09-26T00:35:16.871Z,1.50
2018-09-26T00:36:17.248Z,1.48
2018-09-26T00:37:16.697Z,1.47
2018-09-26T00:38:16.965Z,1.47
2018-09-26T00:39:16.233Z,1.47
2018-09-26T00:40:16.516Z,1.47
2018-09-26T00:41:16.554Z,1.43
2018-09-26T00:42:16.821Z,1.44
2018-09-26T00:43:17.105Z,1.43
2018-09-26T00:44:16.379Z,1.46
2018-09-26T00:45:16.646Z,1.41
2018-09-26T00:46:16.914Z,1.43
2018-09-26T00:47:17.179Z,1.43
2018-09-26T00:48:16.441Z,1.40
2018-09-26T00:49:16.716Z,1.39
2018-09-26T00:50:16.991Z,1.34
2018-09-26T00:51:17.042Z,1.36
2018-09-26T00:52:16.320Z,1.36
2018-09-26T00:53:16.595Z,1.34
2018-09-26T00:54:16.869Z,1.34
2018-09-26T00:55:17.136Z,1.31
2018-09-26T00:56:16.398Z,1.34
2018-09-26T00:57:16.666Z,1.29
2018-09-26T00:58:16.930Z,1.30
2018-09-26T00:59:17.191Z,1.27
2018-09-26T01:00:16.479Z,1.26
2018-09-26T01:01:16.517Z,1.29
2018-09-26T01:02:16.777Z,1.29
2018-09-26T01:03:17.044Z,1.24
2018-09-26T01:04:16.313Z,1.26
2018-09-26T01:05:16.583Z,1.29
2018-09-26T01:06:16.865Z,1.24
2018-09-26T01:07:17.135Z,1.27
2018-09-26T01:08:16.412Z,1.23
2018-09-26T01:09:16.678Z,1.19
2018-09-26T01:10:16.960Z,1.16
2018-09-26T01:11:16.996Z,1.13
2018-09-26T01:12:16.274Z,1.13
2018-09-26T01:13:16.542Z,1.12
2018-09-26T01:14:16.816Z,1.10
2018-09-26T01:15:17.365Z,1.12
2018-09-26T01:16:16.642Z,1.10
2018-09-26T01:17:16.905Z,1.06
2018-09-26T01:18:17.177Z,1.06
2018-09-26T01:19:16.442Z,0.99
2018-09-26T01:20:16.710Z,1.06
2018-09-26T01:21:16.746Z,1.02
2018-09-26T01:22:17.020Z,1.00
2018-09-26T01:23:16.292Z,0.99
2018-09-26T01:24:16.558Z,0.96
2018-09-26T01:25:16.848Z,0.93
2018-09-26T01:26:17.122Z,0.96
2018-09-26T01:27:16.394Z,0.99
2018-09-26T01:28:16.660Z,0.96
2018-09-26T01:29:16.931Z,0.95
2018-09-26T01:30:17.499Z,0.95
2018-09-26T01:31:16.279Z,0.98
2018-09-26T01:32:16.553Z,0.99
2018-09-26T01:33:16.822Z,0.98
2018-09-26T01:34:17.091Z,0.99
2018-09-26T01:35:16.359Z,0.98
2018-09-26T01:36:16.637Z,0.99
2018-09-26T01:37:16.908Z,0.99
2018-09-26T01:38:17.190Z,0.99
2018-09-26T01:39:16.472Z,1.02
2018-09-26T01:40:16.766Z,0.99
2018-09-26T01:41:16.813Z,0.99
2018-09-26T01:42:17.170Z,0.96
2018-09-26T01:43:16.442Z,0.92
2018-09-26T01:44:16.725Z,0.93
2018-09-26T01:45:16.993Z,0.88
2018-09-26T01:46:16.272Z,0.91
2018-09-26T01:47:16.542Z,0.91
2018-09-26T01:48:16.802Z,0.89
2018-09-26T01:49:17.086Z,0.88
2018-09-26T01:50:16.368Z,0.88
2018-09-26T01:51:16.425Z,0.86
2018-09-26T01:52:16.693Z,0.86
2018-09-26T01:53:16.970Z,0.81
2018-09-26T01:54:16.248Z,0.83
2018-09-26T01:55:16.524Z,0.79
2018-09-26T01:56:16.807Z,0.82
2018-09-26T01:57:17.082Z,0.79
2018-09-26T01:58:16.358Z,0.75
2018-09-26T01:59:16.638Z,0.72
2018-09-26T02:00:16.923Z,0.69
2018-09-26T02:01:16.962Z,0.69
2018-09-26T02:02:16.229Z,0.65
2018-09-26T02:03:16.501Z,0.64
2018-09-26T02:04:16.775Z,0.58
2018-09-26T02:05:17.053Z,0.57
2018-09-26T02:06:16.326Z,0.55
2018-09-26T02:07:16.592Z,0.48
2018-09-26T02:08:16.852Z,0.45
2018-09-26T02:09:17.112Z,0.45
2018-09-26T02:10:16.386Z,0.43
2018-09-26T02:11:16.428Z,0.43
2018-09-26T02:12:16.704Z,0.41
2018-09-26T02:13:16.976Z,0.41
2018-09-26T02:14:16.260Z,0.34
2018-09-26T02:15:16.527Z,0.33
2018-09-26T02:16:16.797Z,0.34
2018-09-26T02:17:17.078Z,0.33
2018-09-26T02:18:16.352Z,0.33
2018-09-26T02:19:16.614Z,0.30
2018-09-26T02:20:16.896Z,0.29
2018-09-26T02:21:16.946Z,0.33
2018-09-26T02:22:16.208Z,0.27
2018-09-26T02:23:16.495Z,0.27
2018-09-26T02:24:16.774Z,0.29
2018-09-26T02:25:17.053Z,0.27
2018-09-26T02:26:16.322Z,0.30
2018-09-26T02:27:16.582Z,0.32
2018-09-26T02:28:16.842Z,0.29
2018-09-26T02:29:17.113Z,0.33
2018-09-26T02:30:16.426Z,0.34
2018-09-26T02:31:16.424Z,0.38
2018-09-26T02:32:16.686Z,0.51
2018-09-26T02:33:16.956Z,0.53
2018-09-26T02:34:16.235Z,0.48
2018-09-26T02:35:16.507Z,0.44
2018-09-26T02:36:16.779Z,0.43
2018-09-26T02:37:17.055Z,0.44
2018-09-26T02:38:16.335Z,0.47
2018-09-26T02:39:16.635Z,0.44
2018-09-26T02:40:16.921Z,0.40
2018-09-26T02:41:16.966Z,0.40
2018-09-26T02:42:16.246Z,0.47
2018-09-26T02:43:16.513Z,0.48
2018-09-26T02:44:16.781Z,0.47
2018-09-26T02:45:17.065Z,0.54
2018-09-26T02:46:16.336Z,0.50
2018-09-26T02:47:16.826Z,0.51
2018-09-26T02:48:17.098Z,0.44
2018-09-26T02:49:16.369Z,0.40
2018-09-26T02:50:16.654Z,0.40
2018-09-26T02:51:16.682Z,0.38
2018-09-26T02:52:16.947Z,0.38
2018-09-26T02:53:16.214Z,0.36
2018-09-26T02:54:16.494Z,0.33
2018-09-26T02:55:16.759Z,0.34
2018-09-26T02:56:17.030Z,0.40
2018-09-26T02:57:16.577Z,0.33
2018-09-26T02:58:16.853Z,0.30
2018-09-26T02:59:17.123Z,0.26
2018-09-26T03:00:16.420Z,0.27
2018-09-26T03:01:16.448Z,0.24
2018-09-26T03:02:16.736Z,0.20
2018-09-26T03:03:17.005Z,0.19
2018-09-26T03:04:16.277Z,0.22
2018-09-26T03:05:16.544Z,0.17
2018-09-26T03:06:16.811Z,0.19
2018-09-26T03:07:17.249Z,0.22
2018-09-26T03:08:16.527Z,0.19
2018-09-26T03:09:16.808Z,0.15
2018-09-26T03:10:17.091Z,0.12
2018-09-26T03:11:17.148Z,0.12
2018-09-26T03:12:16.414Z,0.10
2018-09-26T03:13:16.700Z,0.10
2018-09-26T03:14:16.976Z,0.09
2018-09-26T03:15:16.255Z,0.03
2018-09-26T03:16:16.519Z,-0.05
2018-09-26T03:17:16.801Z,-0.14
2018-09-26T03:18:17.068Z,-0.21
2018-09-26T03:19:16.332Z,-0.18
2018-09-26T03:20:16.614Z,-0.18
2018-09-26T03:21:16.640Z,-0.22
2018-09-26T03:22:16.905Z,-0.22
2018-09-26T03:23:17.176Z,-0.23
2018-09-26T03:24:16.460Z,-0.21
2018-09-26T03:25:16.736Z,-0.19
2018-09-26T03:26:17.014Z,-0.26
2018-09-26T03:27:16.298Z,-0.25
2018-09-26T03:28:16.569Z,-0.22
2018-09-26T03:29:16.842Z,-0.18
2018-09-26T03:30:17.133Z,-0.21
2018-09-26T03:31:17.168Z,-0.21
2018-09-26T03:32:16.456Z,-0.22
2018-09-26T03:33:16.730Z,-0.22
2018-09-26T03:34:16.994Z,-0.18
2018-09-26T03:35:16.291Z,-0.18
2018-09-26T03:36:16.569Z,-0.19
2018-09-26T03:37:16.835Z,-0.28
2018-09-26T03:38:17.109Z,-0.31
2018-09-26T03:39:16.372Z,-0.29
2018-09-26T03:40:16.643Z,-0.29
2018-09-26T03:41:16.687Z,-0.29
2018-09-26T03:42:16.967Z,-0.29
2018-09-26T03:43:16.273Z,-0.26
2018-09-26T03:44:16.545Z,-0.26
2018-09-26T03:45:16.811Z,-0.25
2018-09-26T03:46:17.088Z,-0.25
2018-09-26T03:47:16.358Z,-0.18
2018-09-26T03:48:16.638Z,-0.21
2018-09-26T03:49:16.918Z,-0.23
2018-09-26T03:50:17.205Z,-0.28
2018-09-26T03:51:16.258Z,-0.29
2018-09-26T03:52:16.534Z,-0.31
2018-09-26T03:53:16.802Z,-0.32
2018-09-26T03:54:17.077Z,-0.32
2018-09-26T03:55:16.357Z,-0.28
2018-09-26T03:56:16.640Z,-0.29
2018-09-26T03:57:16.924Z,-0.35
2018-09-26T03:58:16.203Z,-0.36
2018-09-26T03:59:16.475Z,-0.41
2018-09-26T04:00:16.752Z,-0.36
2018-09-26T04:01:16.806Z,-0.35
2018-09-26T04:02:17.089Z,-0.36
2018-09-26T04:03:16.365Z,-0.33
2018-09-26T04:04:16.644Z,-0.32
2018-09-26T04:05:16.912Z,-0.29
2018-09-26T04:06:17.184Z,-0.28
2018-09-26T04:07:16.449Z,-0.35
2018-09-26T04:08:16.725Z,-0.36
2018-09-26T04:09:17.013Z,-0.39
2018-09-26T04:10:16.291Z,-0.41
2018-09-26T04:11:16.329Z,-0.38
2018-09-26T04:12:16.593Z,-0.42
2018-09-26T04:13:16.868Z,-0.43
2018-09-26T04:14:17.134Z,-0.41
2018-09-26T04:15:16.410Z,-0.41
2018-09-26T04:16:16.691Z,-0.43
2018-09-26T04:17:16.954Z,-0.43
2018-09-26T04:18:16.224Z,-0.54
2018-09-26T04:19:16.514Z,-0.52
2018-09-26T04:20:16.470Z,-0.53
2018-09-26T04:21:16.497Z,-0.50
2018-09-26T04:22:16.765Z,-0.52
2018-09-26T04:23:17.051Z,-0.54
2018-09-26T04:24:16.330Z,-0.50
2018-09-26T04:25:16.613Z,-0.49
2018-09-26T04:26:16.996Z,-0.49
2018-09-26T04:27:16.418Z,-0.42
2018-09-26T04:28:16.926Z,-0.45
2018-09-26T04:29:16.297Z,-0.52
2018-09-26T04:30:16.836Z,-0.49
2018-09-26T04:31:16.979Z,-0.45
2018-09-26T04:32:16.254Z,-0.47
2018-09-26T04:33:16.987Z,-0.47
2018-09-26T04:34:16.203Z,-0.47
2018-09-26T04:35:16.476Z,-0.41
2018-09-26T04:36:16.767Z,-0.32
2018-09-26T04:37:17.040Z,-0.32
2018-09-26T04:38:16.307Z,-0.28
2018-09-26T04:39:16.585Z,-0.25
2018-09-26T04:40:16.879Z,-0.21
2018-09-26T04:41:16.922Z,-0.17
2018-09-26T04:42:17.189Z,-0.15
2018-09-26T04:43:16.460Z,-0.14
2018-09-26T04:44:16.914Z,-0.10
2018-09-26T04:45:17.185Z,-0.11
2018-09-26T04:46:16.446Z,-0.04
2018-09-26T04:47:16.728Z,-0.05
2018-09-26T04:48:16.994Z,-0.03
2018-09-26T04:49:16.460Z,-0.05
2018-09-26T04:50:16.751Z,-0.07
2018-09-26T04:51:16.775Z,-0.03
2018-09-26T04:52:17.043Z,0.00
2018-09-26T04:53:16.314Z,-0.01
2018-09-26T04:54:16.601Z,0.02
2018-09-26T04:55:16.882Z,0.05
2018-09-26T04:56:17.156Z,0.10
2018-09-26T04:57:16.430Z,0.10
2018-09-26T04:58:16.756Z,0.09
2018-09-26T04:59:17.085Z,0.10
2018-09-26T05:00:16.365Z,0.10
2018-09-26T05:01:16.411Z,0.09
2018-09-26T05:02:16.689Z,0.12
2018-09-26T05:03:16.953Z,0.09
2018-09-26T05:04:16.233Z,0.06
2018-09-26T05:05:16.502Z,0.02
2018-09-26T05:06:16.769Z,0.03
2018-09-26T05:07:17.040Z,0.05
2018-09-26T05:08:16.312Z,0.09
2018-09-26T05:09:16.772Z,0.05
2018-09-26T05:10:16.259Z,0.06
2018-09-26T05:11:16.291Z,0.05
2018-09-26T05:12:16.559Z,0.03
2018-09-26T05:13:16.812Z,0.05
2018-09-26T05:14:17.098Z,0.03
2018-09-26T05:15:16.371Z,0.03
2018-09-26T05:16:16.617Z,0.02
2018-09-26T05:17:16.874Z,0.00
2018-09-26T05:18:17.159Z,-0.01
2018-09-26T05:19:16.436Z,0.00
2018-09-26T05:20:16.972Z,0.00
2018-09-26T05:21:16.760Z,0.05
2018-09-26T05:22:17.034Z,0.06
2018-09-26T05:23:16.433Z,0.09
2018-09-26T05:24:16.887Z,0.08
2018-09-26T05:25:17.191Z,0.15
2018-09-26T05:26:16.470Z,0.16
2018-09-26T05:27:16.736Z,0.15
2018-09-26T05:28:17.008Z,0.16
2018-09-26T05:29:16.284Z,0.15
2018-09-26T05:30:16.562Z,0.16
2018-09-26T05:31:16.611Z,0.12
2018-09-26T05:32:16.878Z,0.15
2018-09-26T05:33:17.147Z,0.19
2018-09-26T05:34:16.421Z,0.19
2018-09-26T05:35:16.714Z,0.19
2018-09-26T05:36:17.018Z,0.20
2018-09-26T05:37:16.290Z,0.22
2018-09-26T05:38:16.565Z,0.20
2018-09-26T05:39:16.841Z,0.20
2018-09-26T05:40:17.133Z,0.26
2018-09-26T05:41:17.175Z,0.29
2018-09-26T05:42:16.441Z,0.29
2018-09-26T05:43:16.705Z,0.32
2018-09-26T05:44:17.005Z,0.33
2018-09-26T05:45:16.280Z,0.34
2018-09-26T05:46:16.849Z,0.36
2018-09-26T05:47:17.112Z,0.34
2018-09-26T05:48:16.371Z,0.36
2018-09-26T05:49:16.646Z,0.37
2018-09-26T05:50:16.949Z,0.41
2018-09-26T05:51:16.945Z,0.43
2018-09-26T05:52:16.217Z,0.45
2018-09-26T05:53:16.524Z,0.45
2018-09-26T05:54:16.826Z,0.53
2018-09-26T05:55:17.098Z,0.53
2018-09-26T05:56:16.365Z,0.61
2018-09-26T05:57:16.641Z,0.71
2018-09-26T05:58:16.924Z,0.68
2018-09-26T05:59:17.189Z,0.69
2018-09-26T06:00:16.523Z,0.78
2018-09-26T06:01:16.513Z,0.75
2018-09-26T06:02:16.795Z,0.79
2018-09-26T06:03:17.070Z,0.83
2018-09-26T06:04:16.346Z,0.86
2018-09-26T06:05:16.680Z,0.91
2018-09-26T06:06:17.004Z,1.06
2018-09-26T06:07:16.279Z,1.16
2018-09-26T06:08:16.556Z,1.26
2018-09-26T06:09:16.829Z,1.30
2018-09-26T06:10:17.110Z,1.33
2018-09-26T06:11:17.170Z,1.34
2018-09-26T06:12:16.544Z,1.39
2018-09-26T06:13:16.812Z,1.48
2018-09-26T06:14:17.078Z,1.51
2018-09-26T06:15:16.358Z,1.62
2018-09-26T06:16:16.630Z,1.61
2018-09-26T06:17:16.908Z,1.64
2018-09-26T06:18:17.179Z,1.68
2018-09-26T06:19:16.454Z,1.72
2018-09-26T06:20:16.739Z,1.72
2018-09-26T06:21:16.794Z,1.75
2018-09-26T06:22:17.056Z,1.75
2018-09-26T06:23:16.333Z,1.77
2018-09-26T06:24:16.602Z,1.78
2018-09-26T06:25:16.897Z,1.77
2018-09-26T06:26:17.177Z,1.77
2018-09-26T06:27:16.467Z,1.75
2018-09-26T06:28:16.769Z,1.75
2018-09-26T06:29:17.051Z,1.72
2018-09-26T06:30:16.342Z,1.72
2018-09-26T06:31:16.361Z,1.79
2018-09-26T06:32:16.781Z,1.81
2018-09-26T06:33:17.048Z,1.81
2018-09-26T06:34:16.310Z,1.85
2018-09-26T06:35:16.587Z,1.85
2018-09-26T06:36:16.853Z,1.88
2018-09-26T06:37:17.129Z,1.89
2018-09-26T06:38:16.393Z,1.93
2018-09-26T06:39:16.659Z,1.92
2018-09-26T06:40:16.991Z,2.02
2018-09-26T06:41:17.016Z,2.06
2018-09-26T06:42:16.298Z,2.05
2018-09-26T06:43:16.569Z,2.06
2018-09-26T06:44:16.841Z,2.09
2018-09-26T06:45:17.165Z,2.23
2018-09-26T06:46:16.450Z,2.34
2018-09-26T06:47:16.713Z,2.61
2018-09-26T06:48:16.988Z,2.67
2018-09-26T06:49:16.254Z,2.76
2018-09-26T06:50:16.560Z,2.76
2018-09-26T06:51:16.767Z,2.82
2018-09-26T06:52:17.030Z,2.92
2018-09-26T06:53:16.293Z,2.96
2018-09-26T06:54:16.573Z,2.96
2018-09-26T06:55:16.849Z,3.04
2018-09-26T06:56:17.113Z,3.06
2018-09-26T06:57:16.393Z,3.12
2018-09-26T06:58:16.662Z,3.14
2018-09-26T06:59:16.937Z,3.10
2018-09-26T07:00:16.298Z,3.19
2018-09-26T07:01:16.314Z,3.23
2018-09-26T07:02:16.596Z,3.41
2018-09-26T07:03:16.859Z,3.44
2018-09-26T07:04:17.149Z,3.54
2018-09-26T07:05:16.423Z,3.57
2018-09-26T07:06:16.696Z,3.72
2018-09-26T07:07:16.967Z,3.79
2018-09-26T07:08:16.253Z,3.95
2018-09-26T07:09:16.529Z,3.93
2018-09-26T07:10:16.799Z,4.19
2018-09-26T07:11:16.871Z,4.24
2018-09-26T07:12:17.226Z,4.23
2018-09-26T07:13:16.660Z,4.33
2018-09-26T07:14:16.934Z,4.37
2018-09-26T07:15:17.219Z,4.50
2018-09-26T07:16:16.486Z,4.48
2018-09-26T07:17:16.751Z,4.53
2018-09-26T07:18:17.023Z,4.57
2018-09-26T07:19:16.296Z,4.63
2018-09-26T07:20:16.615Z,4.69
2018-09-26T07:21:16.644Z,4.84
2018-09-26T07:22:16.918Z,4.75
2018-09-26T07:23:17.182Z,4.76
2018-09-26T07:24:16.453Z,4.82
2018-09-26T07:25:16.727Z,5.07
2018-09-26T07:26:17.003Z,5.07
2018-09-26T07:27:16.280Z,5.17
2018-09-26T07:28:16.553Z,5.23
2018-09-26T07:29:16.829Z,5.31
2018-09-26T07:30:17.106Z,5.34
2018-09-26T07:31:17.212Z,5.34
2018-09-26T07:32:16.592Z,5.33
2018-09-26T07:33:17.048Z,5.30
2018-09-26T07:34:16.317Z,5.31
2018-09-26T07:35:16.590Z,5.43
2018-09-26T07:36:16.853Z,5.60
2018-09-26T07:37:17.136Z,5.47
2018-09-26T07:38:16.442Z,5.64
2018-09-26T07:39:16.769Z,5.57
2018-09-26T07:40:17.040Z,5.82
2018-09-26T07:41:17.125Z,6.08
2018-09-26T07:42:16.391Z,6.12
2018-09-26T07:43:16.660Z,6.31
2018-09-26T07:44:16.931Z,6.41
2018-09-26T07:45:17.224Z,6.52
2018-09-26T07:46:16.535Z,6.64
2018-09-26T07:47:16.801Z,6.36
2018-09-26T07:48:17.071Z,6.31
2018-09-26T07:49:16.336Z,6.34
2018-09-26T07:50:16.632Z,6.48
2018-09-26T07:51:16.705Z,6.59
2018-09-26T07:52:16.969Z,6.47
2018-09-26T07:53:16.248Z,6.43
2018-09-26T07:54:16.521Z,6.52
2018-09-26T07:55:16.798Z,6.55
2018-09-26T07:56:17.064Z,6.51
2018-09-26T07:57:16.337Z,6.51
2018-09-26T07:58:16.597Z,6.78
2018-09-26T07:59:16.872Z,6.59
2018-09-26T08:00:17.160Z,6.59
2018-09-26T08:01:16.231Z,6.68
2018-09-26T08:02:16.497Z,6.79
2018-09-26T08:03:16.770Z,6.89
2018-09-26T08:04:17.050Z,6.86
2018-09-26T08:05:16.369Z,6.92
2018-09-26T08:06:16.629Z,7.09
2018-09-26T08:07:16.905Z,7.31
2018-09-26T08:08:17.186Z,7.51
2018-09-26T08:09:16.462Z,7.82
2018-09-26T08:10:16.749Z,7.95
2018-09-26T08:11:16.863Z,7.99
2018-09-26T08:12:16.210Z,7.99
2018-09-26T08:13:16.479Z,7.99
2018-09-26T08:14:16.754Z,7.99
2018-09-26T08:15:17.027Z,7.95
2018-09-26T08:16:16.301Z,8.03
2018-09-26T08:17:16.566Z,8.40
2018-09-26T08:18:16.892Z,8.51
2018-09-26T08:19:16.423Z,8.44
2018-09-26T08:20:16.704Z,8.40
2018-09-26T08:21:16.753Z,8.41
2018-09-26T08:22:17.022Z,8.55
2018-09-26T08:23:16.334Z,8.76
2018-09-26T08:24:16.672Z,8.89
2018-09-26T08:25:17.149Z,8.85
2018-09-26T08:26:16.417Z,8.68
2018-09-26T08:27:16.698Z,8.54
2018-09-26T08:28:16.965Z,8.55
2018-09-26T08:29:16.226Z,8.75
2018-09-26T08:30:16.522Z,8.95
2018-09-26T08:31:16.579Z,8.99
2018-09-26T08:32:16.848Z,9.03
2018-09-26T08:33:17.121Z,9.26
2018-09-26T08:34:16.390Z,9.38
2018-09-26T08:35:16.654Z,9.38
2018-09-26T08:36:16.919Z,9.58
2018-09-26T08:37:17.181Z,9.41
2018-09-26T08:38:16.454Z,9.58
2018-09-26T08:39:16.717Z,9.78
2018-09-26T08:40:16.995Z,9.72
2018-09-26T08:41:17.058Z,9.66
2018-09-26T08:42:16.338Z,9.66
2018-09-26T08:43:16.598Z,9.86
2018-09-26T08:44:16.864Z,9.86
2018-09-26T08:45:17.137Z,9.68
2018-09-26T08:46:16.417Z,9.80
2018-09-26T08:47:16.688Z,9.82
2018-09-26T08:48:16.952Z,9.91
2018-09-26T08:49:16.236Z,9.89
2018-09-26T08:50:16.521Z,9.78
2018-09-26T08:51:16.592Z,9.78
2018-09-26T08:52:16.853Z,9.98
2018-09-26T08:53:17.114Z,9.99
2018-09-26T08:54:16.375Z,10.10
2018-09-26T08:55:16.642Z,10.14
2018-09-26T08:56:16.926Z,10.10
2018-09-26T08:57:17.197Z,10.21
2018-09-26T08:58:16.456Z,10.21
2018-09-26T08:59:16.722Z,10.13
2018-09-26T09:00:17.001Z,10.21
2018-09-26T09:01:17.061Z,10.33
2018-09-26T09:02:16.342Z,10.41
2018-09-26T09:03:16.614Z,10.41
2018-09-26T09:04:16.891Z,10.34
2018-09-26T09:05:17.176Z,10.40
2018-09-26T09:06:16.524Z,10.40
2018-09-26T09:07:16.963Z,10.47
2018-09-26T09:08:16.234Z,10.58
2018-09-26T09:09:16.514Z,10.60
2018-09-26T09:10:16.781Z,10.58
2018-09-26T09:11:16.868Z,10.61
2018-09-26T09:12:17.132Z,10.65
2018-09-26T09:13:16.397Z,10.74
2018-09-26T09:14:16.731Z,10.87
2018-09-26T09:15:17.123Z,10.94
2018-09-26T09:16:16.393Z,11.05
2018-09-26T09:17:16.654Z,11.23
2018-09-26T09:18:16.922Z,11.23
2018-09-26T09:19:17.190Z,11.26
2018-09-26T09:20:16.522Z,11.39
2018-09-26T09:21:16.506Z,11.47
2018-09-26T09:22:16.790Z,11.47
2018-09-26T09:23:17.062Z,11.46
2018-09-26T09:24:16.329Z,11.36
2018-09-26T09:25:16.603Z,11.57
2018-09-26T09:26:16.929Z,11.51
2018-09-26T09:27:16.431Z,11.64
2018-09-26T09:28:16.849Z,11.77
2018-09-26T09:29:17.115Z,11.71
2018-09-26T09:30:16.396Z,11.77
2018-09-26T09:31:16.453Z,11.63
2018-09-26T09:32:16.761Z,11.74
2018-09-26T09:33:17.206Z,11.82
2018-09-26T09:34:16.476Z,11.82
2018-09-26T09:35:16.750Z,11.82
2018-09-26T09:36:17.015Z,11.74
2018-09-26T09:37:16.293Z,11.82
2018-09-26T09:38:16.631Z,11.86
2018-09-26T09:39:17.072Z,11.75
2018-09-26T09:40:16.369Z,11.78
2018-09-26T09:41:16.391Z,11.78
2018-09-26T09:42:16.660Z,11.85
2018-09-26T09:43:16.927Z,11.81
2018-09-26T09:44:17.260Z,12.02
2018-09-26T09:45:16.607Z,12.03
2018-09-26T09:46:16.910Z,12.09
2018-09-26T09:47:17.174Z,12.15
2018-09-26T09:48:16.446Z,12.23
2018-09-26T09:49:16.712Z,12.37
2018-09-26T09:50:17.080Z,12.32
2018-09-26T09:51:17.085Z,12.30
2018-09-26T09:52:16.360Z,12.43
2018-09-26T09:53:16.670Z,12.54
2018-09-26T09:54:16.953Z,12.53
2018-09-26T09:55:16.226Z,12.61
2018-09-26T09:56:16.577Z,12.70
2018-09-26T09:57:17.035Z,12.64
2018-09-26T09:58:16.316Z,12.64
2018-09-26T09:59:16.588Z,12.66
2018-09-26T10:00:16.887Z,12.58
2018-09-26T10:01:17.133Z,12.50
2018-09-26T10:02:16.436Z,12.50
2018-09-26T10:03:16.890Z,12.61
2018-09-26T10:04:17.179Z,12.57
2018-09-26T10:05:16.463Z,12.66
2018-09-26T10:06:16.738Z,12.66
2018-09-26T10:07:17.015Z,12.87
2018-09-26T10:08:16.386Z,12.98
2018-09-26T10:09:16.691Z,13.04
2018-09-26T10:10:16.979Z,12.99
2018-09-26T10:11:17.042Z,12.96
2018-09-26T10:12:16.328Z,12.96
2018-09-26T10:13:16.587Z,12.72
2018-09-26T10:14:16.963Z,12.71
2018-09-26T10:15:16.387Z,12.72
2018-09-26T10:16:16.649Z,12.78
2018-09-26T10:17:16.953Z,12.91
2018-09-26T10:18:16.220Z,12.91
2018-09-26T10:19:16.491Z,13.06
2018-09-26T10:20:16.775Z,13.06
2018-09-26T10:21:16.849Z,13.12
2018-09-26T10:22:17.149Z,13.05
2018-09-26T10:23:16.427Z,13.16
2018-09-26T10:24:16.693Z,13.16
2018-09-26T10:25:17.012Z,13.06
2018-09-26T10:26:16.558Z,12.96
2018-09-26T10:27:16.881Z,13.02
2018-09-26T10:28:17.161Z,13.04
2018-09-26T10:29:16.435Z,13.15
2018-09-26T10:30:16.701Z,13.14
2018-09-26T10:31:16.760Z,13.26
2018-09-26T10:32:17.101Z,13.47
2018-09-26T10:33:16.484Z,13.44
2018-09-26T10:34:16.758Z,13.47
2018-09-26T10:35:17.026Z,13.33
2018-09-26T10:36:16.296Z,13.50
2018-09-26T10:37:16.570Z,13.47
2018-09-26T10:38:16.904Z,13.46
2018-09-26T10:39:16.234Z,13.42
2018-09-26T10:40:16.516Z,13.55
2018-09-26T10:41:16.559Z,13.51
2018-09-26T10:42:16.832Z,13.54
2018-09-26T10:43:17.102Z,13.44
2018-09-26T10:44:16.430Z,13.58
2018-09-26T10:45:16.776Z,13.49
2018-09-26T10:46:17.053Z,13.50
2018-09-26T10:47:16.321Z,13.53
2018-09-26T10:48:16.593Z,13.57
2018-09-26T10:49:16.865Z,13.54
2018-09-26T10:50:17.213Z,13.43
2018-09-26T10:51:16.210Z,13.42
2018-09-26T10:52:16.487Z,13.42
2018-09-26T10:53:16.765Z,13.49
2018-09-26T10:54:17.036Z,13.58
2018-09-26T10:55:16.312Z,13.64
2018-09-26T10:56:16.631Z,13.80
2018-09-26T10:57:16.225Z,13.71
2018-09-26T10:58:16.497Z,13.94
2018-09-26T10:59:16.782Z,13.95
2018-09-26T11:00:17.070Z,13.87
2018-09-26T11:01:17.120Z,13.88
2018-09-26T11:02:16.450Z,13.84
2018-09-26T11:03:16.773Z,13.78
2018-09-26T11:04:17.052Z,13.78
2018-09-26T11:05:16.453Z,13.73
2018-09-26T11:06:16.716Z,13.63
2018-09-26T11:07:16.984Z,13.64
2018-09-26T11:08:16.301Z,13.97
2018-09-26T11:09:16.670Z,13.98
2018-09-26T11:10:17.016Z,13.98
2018-09-26T11:11:17.020Z,14.09
2018-09-26T11:12:16.299Z,14.12
2018-09-26T11:13:16.568Z,14.00
2018-09-26T11:14:16.861Z,13.84
2018-09-26T11:15:17.262Z,13.80
2018-09-26T11:16:16.713Z,13.91
2018-09-26T11:17:17.193Z,13.91
2018-09-26T11:18:16.463Z,14.19
2018-09-26T11:19:16.734Z,14.28
2018-09-26T11:20:17.078Z,14.43
2018-09-26T11:21:17.121Z,14.43
2018-09-26T11:22:16.515Z,14.33
2018-09-26T11:23:17.077Z,14.32
2018-09-26T11:24:16.345Z,14.47
2018-09-26T11:25:16.616Z,14.53
2018-09-26T11:26:16.918Z,14.63
2018-09-26T11:27:16.438Z,14.67
2018-09-26T11:28:16.708Z,14.68
2018-09-26T11:29:17.146Z,14.68
2018-09-26T11:30:16.439Z,14.67
2018-09-26T11:31:16.490Z,14.76
2018-09-26T11:32:16.787Z,14.73
2018-09-26T11:33:16.355Z,14.78
2018-09-26T11:34:16.751Z,14.85
2018-09-26T11:35:17.070Z,14.95
2018-09-26T11:36:16.346Z,15.06
2018-09-26T11:37:16.629Z,15.08
2018-09-26T11:38:16.927Z,15.01
2018-09-26T11:39:16.384Z,15.16
2018-09-26T11:40:16.734Z,15.26
2018-09-26T11:41:16.729Z,15.26
2018-09-26T11:42:16.997Z,15.06
2018-09-26T11:43:16.266Z,15.04
2018-09-26T11:44:16.574Z,15.06
2018-09-26T11:45:17.035Z,14.92
2018-09-26T11:46:16.398Z,15.04
2018-09-26T11:47:16.796Z,14.99
2018-09-26T11:48:17.059Z,15.04
2018-09-26T11:49:16.332Z,14.99
2018-09-26T11:50:16.665Z,15.01
2018-09-26T11:51:16.690Z,15.12
2018-09-26T11:52:17.053Z,15.09
2018-09-26T11:53:16.413Z,15.11
2018-09-26T11:54:16.686Z,15.11
2018-09-26T11:55:16.961Z,15.15
2018-09-26T11:56:16.293Z,15.18
2018-09-26T11:57:16.610Z,15.21
2018-09-26T11:58:16.947Z,15.12
2018-09-26T11:59:16.397Z,15.22
2018-09-26T12:00:16.677Z,15.31
2018-09-26T12:01:16.738Z,15.23
2018-09-26T12:02:17.142Z,15.19
2018-09-26T12:03:16.569Z,15.25
2018-09-26T12:04:16.882Z,15.23
2018-09-26T12:05:16.322Z,15.25
2018-09-26T12:06:16.630Z,15.35
2018-09-26T12:07:17.118Z,15.47
2018-09-26T12:08:16.536Z,15.52
2018-09-26T12:09:16.949Z,15.56
2018-09-26T12:10:16.278Z,15.59
2018-09-26T12:11:16.306Z,15.59
2018-09-26T12:12:16.605Z,15.63
2018-09-26T12:13:17.137Z,15.63
2018-09-26T12:14:16.403Z,15.74
2018-09-26T12:15:16.697Z,15.76
2018-09-26T12:16:17.057Z,15.71
2018-09-26T12:17:16.515Z,15.59
2018-09-26T12:18:16.811Z,15.52
2018-09-26T12:19:16.294Z,15.60
2018-09-26T12:20:16.692Z,15.60
2018-09-26T12:21:16.755Z,15.63
2018-09-26T12:22:17.188Z,15.62
2018-09-26T12:23:16.717Z,15.50
2018-09-26T12:24:17.032Z,15.50
2018-09-26T12:25:16.440Z,15.50
2018-09-26T12:27:17.094Z,39.82
2018-09-26T12:28:16.459Z,40.56
2018-09-26T12:29:16.861Z,18.65
2018-09-26T12:30:17.155Z,39.82
2018-09-26T12:32:16.263Z,39.27
2018-09-26T12:34:16.849Z,37.97
2018-09-26T12:35:16.235Z,17.13
2018-09-26T12:36:16.579Z,17.13
2018-09-26T12:37:16.982Z,17.20
2018-09-26T12:38:16.256Z,17.30
2018-09-26T12:39:16.528Z,17.23
2018-09-26T12:40:16.854Z,17.22
2018-09-26T12:42:16.987Z,42.33
2018-09-26T12:44:16.691Z,37.33
2018-09-26T12:45:16.969Z,42.25
2018-09-26T12:49:16.477Z,37.18
2018-09-26T12:50:16.760Z,37.34
2018-09-26T12:51:16.812Z,16.76
2018-09-26T12:52:17.147Z,17.34
2018-09-26T12:53:16.470Z,19.25
2018-09-26T12:54:16.736Z,17.34
2018-09-26T12:55:17.020Z,38.28
2018-09-26T12:56:16.290Z,42.44
2018-09-26T12:57:16.554Z,17.37
2018-09-26T12:58:16.889Z,20.58
2018-09-26T12:59:16.283Z,17.36
2018-09-26T13:00:16.656Z,41.90
2018-09-26T13:01:16.628Z,38.63
2018-09-26T13:02:16.909Z,38.02
2018-09-26T13:03:16.401Z,18.79
2018-09-26T13:04:16.694Z,42.41
2018-09-26T13:05:17.151Z,42.17
2018-09-26T13:07:16.749Z,18.93
2018-09-26T13:08:17.096Z,18.67
2018-09-26T13:09:16.482Z,37.94
2018-09-26T13:10:16.793Z,42.49
2018-09-26T13:11:16.818Z,18.73
2018-09-26T13:12:17.120Z,40.52
2018-09-26T13:13:16.560Z,42.06
2018-09-26T13:19:16.759Z,42.01
2018-09-26T13:20:17.047Z,17.53